sensor_id;sensor_type;location;lat;lon;timestamp;P1;durP1;ratioP1;P2;durP2;ratioP2
47413;SDS011;33163;0.000;0.000;2023-08-06T00:00:20;2.53;;;1.58;;
47413;SDS011;33163;0.000;0.000;2023-08-06T00:02:47;2.53;;;1.40;;
47413;SDS011;33163;0.000;0.000;2023-08-06T00:05:14;3.20;;;1.50;;
47413;SDS011;33163;0.000;0.000;2023-08-06T00:07:43;3.42;;;1.70;;
47413;SDS011;33163;0.000;0.000;2023-08-06T00:10:11;2.72;;;1.65;;
47413;SDS011;33163;0.000;0.000;2023-08-06T00:12:38;1.63;;;1.50;;
47413;SDS011;33163;0.000;0.000;2023-08-06T00:15:05;2.78;;;1.92;;
47413;SDS011;33163;0.000;0.000;2023-08-06T00:17:33;3.05;;;1.42;;
47413;SDS011;33163;0.000;0.000;2023-08-06T00:20:00;1.80;;;1.67;;
47413;SDS011;33163;0.000;0.000;2023-08-06T00:22:29;2.35;;;1.50;;
47413;SDS011;33163;0.000;0.000;2023-08-06T00:24:56;3.10;;;1.65;;
47413;SDS011;33163;0.000;0.000;2023-08-06T00:27:25;3.47;;;1.73;;
47413;SDS011;33163;0.000;0.000;2023-08-06T00:29:52;1.88;;;1.55;;
47413;SDS011;33163;0.000;0.000;2023-08-06T00:32:19;2.78;;;1.63;;
47413;SDS011;33163;0.000;0.000;2023-08-06T00:34:46;3.13;;;1.58;;
47413;SDS011;33163;0.000;0.000;2023-08-06T00:37:14;2.17;;;1.42;;
47413;SDS011;33163;0.000;0.000;2023-08-06T00:39:41;3.38;;;1.70;;
47413;SDS011;33163;0.000;0.000;2023-08-06T00:42:08;2.47;;;1.70;;
47413;SDS011;33163;0.000;0.000;2023-08-06T00:44:36;3.83;;;1.50;;
47413;SDS011;33163;0.000;0.000;2023-08-06T00:47:03;2.13;;;1.48;;
47413;SDS011;33163;0.000;0.000;2023-08-06T00:49:31;2.55;;;1.67;;
47413;SDS011;33163;0.000;0.000;2023-08-06T00:51:57;2.13;;;1.70;;
47413;SDS011;33163;0.000;0.000;2023-08-06T00:54:25;3.05;;;1.50;;
47413;SDS011;33163;0.000;0.000;2023-08-06T00:56:54;2.40;;;1.65;;
47413;SDS011;33163;0.000;0.000;2023-08-06T00:59:22;2.00;;;1.60;;
47413;SDS011;33163;0.000;0.000;2023-08-06T01:01:51;3.03;;;1.90;;
47413;SDS011;33163;0.000;0.000;2023-08-06T01:04:17;2.38;;;1.50;;
47413;SDS011;33163;0.000;0.000;2023-08-06T01:06:46;2.35;;;1.75;;
47413;SDS011;33163;0.000;0.000;2023-08-06T01:09:24;2.08;;;1.67;;
47413;SDS011;33163;0.000;0.000;2023-08-06T01:14:33;1.98;;;1.55;;
47413;SDS011;33163;0.000;0.000;2023-08-06T01:17:05;2.53;;;2.10;;
47413;SDS011;33163;0.000;0.000;2023-08-06T01:19:35;2.05;;;1.70;;
47413;SDS011;33163;0.000;0.000;2023-08-06T01:22:04;2.75;;;1.80;;
47413;SDS011;33163;0.000;0.000;2023-08-06T01:24:31;2.45;;;1.80;;
47413;SDS011;33163;0.000;0.000;2023-08-06T01:26:58;2.90;;;1.80;;
47413;SDS011;33163;0.000;0.000;2023-08-06T01:29:34;1.83;;;1.57;;
47413;SDS011;33163;0.000;0.000;2023-08-06T01:32:05;1.67;;;1.58;;
47413;SDS011;33163;0.000;0.000;2023-08-06T01:34:35;1.80;;;1.50;;
47413;SDS011;33163;0.000;0.000;2023-08-06T01:37:05;2.22;;;1.60;;
47413;SDS011;33163;0.000;0.000;2023-08-06T01:39:32;2.75;;;1.95;;
47413;SDS011;33163;0.000;0.000;2023-08-06T01:41:59;3.33;;;1.60;;
47413;SDS011;33163;0.000;0.000;2023-08-06T01:44:26;3.38;;;1.50;;
47413;SDS011;33163;0.000;0.000;2023-08-06T01:46:53;2.13;;;1.50;;
47413;SDS011;33163;0.000;0.000;2023-08-06T01:49:19;1.45;;;1.35;;
47413;SDS011;33163;0.000;0.000;2023-08-06T01:51:46;1.80;;;1.23;;
47413;SDS011;33163;0.000;0.000;2023-08-06T01:54:14;3.30;;;1.60;;
47413;SDS011;33163;0.000;0.000;2023-08-06T01:56:41;2.55;;;1.65;;
47413;SDS011;33163;0.000;0.000;2023-08-06T01:59:08;1.65;;;1.02;;
47413;SDS011;33163;0.000;0.000;2023-08-06T02:01:34;2.55;;;1.85;;
47413;SDS011;33163;0.000;0.000;2023-08-06T02:04:01;1.50;;;1.30;;
47413;SDS011;33163;0.000;0.000;2023-08-06T02:06:28;2.40;;;1.45;;
47413;SDS011;33163;0.000;0.000;2023-08-06T02:08:55;2.50;;;1.40;;
47413;SDS011;33163;0.000;0.000;2023-08-06T02:11:23;1.48;;;1.35;;
47413;SDS011;33163;0.000;0.000;2023-08-06T02:13:50;1.85;;;1.40;;
47413;SDS011;33163;0.000;0.000;2023-08-06T02:16:16;2.20;;;1.50;;
47413;SDS011;33163;0.000;0.000;2023-08-06T02:18:43;3.08;;;1.52;;
47413;SDS011;33163;0.000;0.000;2023-08-06T02:21:10;1.65;;;1.25;;
47413;SDS011;33163;0.000;0.000;2023-08-06T02:23:37;1.10;;;1.00;;
47413;SDS011;33163;0.000;0.000;2023-08-06T02:26:04;1.58;;;1.30;;
47413;SDS011;33163;0.000;0.000;2023-08-06T02:28:32;1.20;;;1.10;;
47413;SDS011;33163;0.000;0.000;2023-08-06T02:30:59;1.77;;;1.20;;
47413;SDS011;33163;0.000;0.000;2023-08-06T02:33:26;1.33;;;1.23;;
47413;SDS011;33163;0.000;0.000;2023-08-06T02:35:58;1.30;;;1.20;;
47413;SDS011;33163;0.000;0.000;2023-08-06T02:38:25;1.20;;;1.00;;
47413;SDS011;33163;0.000;0.000;2023-08-06T02:40:52;2.80;;;1.40;;
47413;SDS011;33163;0.000;0.000;2023-08-06T02:43:19;1.98;;;1.15;;
47413;SDS011;33163;0.000;0.000;2023-08-06T02:45:47;2.20;;;1.25;;
47413;SDS011;33163;0.000;0.000;2023-08-06T02:48:13;2.53;;;1.10;;
47413;SDS011;33163;0.000;0.000;2023-08-06T02:50:40;1.35;;;1.13;;
47413;SDS011;33163;0.000;0.000;2023-08-06T02:53:08;1.27;;;0.90;;
47413;SDS011;33163;0.000;0.000;2023-08-06T02:55:35;1.73;;;1.23;;
47413;SDS011;33163;0.000;0.000;2023-08-06T02:58:02;3.22;;;1.10;;
47413;SDS011;33163;0.000;0.000;2023-08-06T03:00:29;1.10;;;1.00;;
47413;SDS011;33163;0.000;0.000;2023-08-06T03:02:57;1.75;;;1.15;;
47413;SDS011;33163;0.000;0.000;2023-08-06T03:05:23;2.20;;;0.88;;
47413;SDS011;33163;0.000;0.000;2023-08-06T03:07:50;3.50;;;1.52;;
47413;SDS011;33163;0.000;0.000;2023-08-06T03:10:17;0.80;;;0.80;;
47413;SDS011;33163;0.000;0.000;2023-08-06T03:12:45;1.30;;;0.77;;
47413;SDS011;33163;0.000;0.000;2023-08-06T03:15:11;1.33;;;0.80;;
47413;SDS011;33163;0.000;0.000;2023-08-06T03:17:38;1.38;;;1.10;;
47413;SDS011;33163;0.000;0.000;2023-08-06T03:20:07;1.85;;;1.10;;
47413;SDS011;33163;0.000;0.000;2023-08-06T03:22:34;1.63;;;0.93;;
47413;SDS011;33163;0.000;0.000;2023-08-06T03:25:01;1.10;;;1.00;;
47413;SDS011;33163;0.000;0.000;2023-08-06T03:27:28;1.50;;;0.90;;
47413;SDS011;33163;0.000;0.000;2023-08-06T03:29:54;0.80;;;0.80;;
47413;SDS011;33163;0.000;0.000;2023-08-06T03:32:21;1.35;;;1.10;;
47413;SDS011;33163;0.000;0.000;2023-08-06T03:34:48;2.38;;;1.20;;
47413;SDS011;33163;0.000;0.000;2023-08-06T03:37:16;1.42;;;0.90;;
47413;SDS011;33163;0.000;0.000;2023-08-06T03:39:43;1.35;;;1.15;;
47413;SDS011;33163;0.000;0.000;2023-08-06T03:42:09;2.42;;;1.23;;
47413;SDS011;33163;0.000;0.000;2023-08-06T03:44:36;0.88;;;0.80;;
47413;SDS011;33163;0.000;0.000;2023-08-06T03:47:04;1.35;;;1.25;;
47413;SDS011;33163;0.000;0.000;2023-08-06T03:49:31;0.93;;;0.82;;
47413;SDS011;33163;0.000;0.000;2023-08-06T03:51:58;2.95;;;1.20;;
47413;SDS011;33163;0.000;0.000;2023-08-06T03:54:26;1.83;;;1.13;;
47413;SDS011;33163;0.000;0.000;2023-08-06T03:56:53;1.00;;;1.00;;
47413;SDS011;33163;0.000;0.000;2023-08-06T03:59:19;2.88;;;1.20;;
47413;SDS011;33163;0.000;0.000;2023-08-06T04:01:46;1.42;;;1.00;;
47413;SDS011;33163;0.000;0.000;2023-08-06T04:04:13;1.42;;;1.00;;
47413;SDS011;33163;0.000;0.000;2023-08-06T04:06:40;2.05;;;1.00;;
47413;SDS011;33163;0.000;0.000;2023-08-06T04:09:06;1.23;;;1.13;;
47413;SDS011;33163;0.000;0.000;2023-08-06T04:11:34;1.20;;;1.10;;
47413;SDS011;33163;0.000;0.000;2023-08-06T04:14:01;2.00;;;1.25;;
47413;SDS011;33163;0.000;0.000;2023-08-06T04:16:28;2.80;;;1.35;;
47413;SDS011;33163;0.000;0.000;2023-08-06T04:18:55;4.00;;;1.25;;
47413;SDS011;33163;0.000;0.000;2023-08-06T04:21:21;5.85;;;1.23;;
47413;SDS011;33163;0.000;0.000;2023-08-06T04:23:48;4.05;;;1.15;;
47413;SDS011;33163;0.000;0.000;2023-08-06T04:26:15;2.08;;;1.30;;
47413;SDS011;33163;0.000;0.000;2023-08-06T04:28:43;4.20;;;1.30;;
47413;SDS011;33163;0.000;0.000;2023-08-06T04:31:10;2.40;;;1.02;;
47413;SDS011;33163;0.000;0.000;2023-08-06T04:33:36;3.58;;;1.15;;
47413;SDS011;33163;0.000;0.000;2023-08-06T04:36:03;1.75;;;1.10;;
47413;SDS011;33163;0.000;0.000;2023-08-06T04:38:30;1.55;;;1.08;;
47413;SDS011;33163;0.000;0.000;2023-08-06T04:40:57;3.17;;;1.60;;
47413;SDS011;33163;0.000;0.000;2023-08-06T04:43:24;2.40;;;1.33;;
47413;SDS011;33163;0.000;0.000;2023-08-06T04:45:53;2.47;;;1.20;;
47413;SDS011;33163;0.000;0.000;2023-08-06T04:48:21;2.30;;;1.48;;
47413;SDS011;33163;0.000;0.000;2023-08-06T04:50:48;3.17;;;1.40;;
47413;SDS011;33163;0.000;0.000;2023-08-06T04:53:16;3.17;;;1.10;;
47413;SDS011;33163;0.000;0.000;2023-08-06T04:55:43;5.40;;;1.25;;
47413;SDS011;33163;0.000;0.000;2023-08-06T04:58:09;3.42;;;1.25;;
47413;SDS011;33163;0.000;0.000;2023-08-06T05:00:37;1.80;;;1.40;;
47413;SDS011;33163;0.000;0.000;2023-08-06T05:03:05;2.33;;;1.27;;
47413;SDS011;33163;0.000;0.000;2023-08-06T05:05:32;3.35;;;1.27;;
47413;SDS011;33163;0.000;0.000;2023-08-06T05:07:58;3.38;;;1.50;;
47413;SDS011;33163;0.000;0.000;2023-08-06T05:10:25;5.60;;;1.23;;
47413;SDS011;33163;0.000;0.000;2023-08-06T05:12:52;2.80;;;1.38;;
47413;SDS011;33163;0.000;0.000;2023-08-06T05:15:19;3.80;;;1.70;;
47413;SDS011;33163;0.000;0.000;2023-08-06T05:17:46;3.58;;;1.75;;
47413;SDS011;33163;0.000;0.000;2023-08-06T05:20:14;3.80;;;1.50;;
47413;SDS011;33163;0.000;0.000;2023-08-06T05:22:41;3.15;;;1.42;;
47413;SDS011;33163;0.000;0.000;2023-08-06T05:25:08;1.65;;;1.20;;
47413;SDS011;33163;0.000;0.000;2023-08-06T05:27:34;3.80;;;1.45;;
47413;SDS011;33163;0.000;0.000;2023-08-06T05:30:01;2.65;;;1.55;;
47413;SDS011;33163;0.000;0.000;2023-08-06T05:32:28;1.58;;;1.10;;
47413;SDS011;33163;0.000;0.000;2023-08-06T05:34:55;1.80;;;1.50;;
47413;SDS011;33163;0.000;0.000;2023-08-06T05:37:23;3.28;;;1.50;;
47413;SDS011;33163;0.000;0.000;2023-08-06T05:39:50;2.85;;;1.73;;
47413;SDS011;33163;0.000;0.000;2023-08-06T05:42:16;2.67;;;1.52;;
47413;SDS011;33163;0.000;0.000;2023-08-06T05:44:43;2.53;;;1.30;;
47413;SDS011;33163;0.000;0.000;2023-08-06T05:47:10;1.63;;;1.38;;
47413;SDS011;33163;0.000;0.000;2023-08-06T05:49:37;2.75;;;1.58;;
47413;SDS011;33163;0.000;0.000;2023-08-06T05:52:04;1.77;;;1.40;;
47413;SDS011;33163;0.000;0.000;2023-08-06T05:54:34;4.60;;;1.77;;
47413;SDS011;33163;0.000;0.000;2023-08-06T05:57:01;1.63;;;1.10;;
47413;SDS011;33163;0.000;0.000;2023-08-06T05:59:28;3.03;;;1.08;;
47413;SDS011;33163;0.000;0.000;2023-08-06T06:01:55;2.30;;;1.60;;
47413;SDS011;33163;0.000;0.000;2023-08-06T06:04:22;3.42;;;1.60;;
47413;SDS011;33163;0.000;0.000;2023-08-06T06:06:48;2.13;;;1.52;;
47413;SDS011;33163;0.000;0.000;2023-08-06T06:09:15;5.88;;;1.92;;
47413;SDS011;33163;0.000;0.000;2023-08-06T06:11:43;1.98;;;1.08;;
47413;SDS011;33163;0.000;0.000;2023-08-06T06:14:10;2.63;;;1.60;;
47413;SDS011;33163;0.000;0.000;2023-08-06T06:16:37;4.03;;;2.00;;
47413;SDS011;33163;0.000;0.000;2023-08-06T06:19:03;2.30;;;1.40;;
47413;SDS011;33163;0.000;0.000;2023-08-06T06:21:30;2.83;;;1.40;;
47413;SDS011;33163;0.000;0.000;2023-08-06T06:23:57;3.47;;;1.45;;
47413;SDS011;33163;0.000;0.000;2023-08-06T06:26:23;1.95;;;1.02;;
47413;SDS011;33163;0.000;0.000;2023-08-06T06:28:52;3.42;;;1.35;;
47413;SDS011;33163;0.000;0.000;2023-08-06T06:31:18;2.20;;;1.27;;
47413;SDS011;33163;0.000;0.000;2023-08-06T06:33:45;1.77;;;1.42;;
47413;SDS011;33163;0.000;0.000;2023-08-06T06:36:12;3.17;;;1.45;;
47413;SDS011;33163;0.000;0.000;2023-08-06T06:38:38;1.98;;;1.20;;
47413;SDS011;33163;0.000;0.000;2023-08-06T06:41:05;2.20;;;1.23;;
47413;SDS011;33163;0.000;0.000;2023-08-06T06:43:32;2.50;;;1.30;;
47413;SDS011;33163;0.000;0.000;2023-08-06T06:46:00;2.20;;;1.02;;
47413;SDS011;33163;0.000;0.000;2023-08-06T06:48:28;3.42;;;1.38;;
47413;SDS011;33163;0.000;0.000;2023-08-06T06:50:57;2.95;;;1.17;;
47413;SDS011;33163;0.000;0.000;2023-08-06T06:53:24;4.43;;;1.40;;
47413;SDS011;33163;0.000;0.000;2023-08-06T06:55:53;3.63;;;1.38;;
47413;SDS011;33163;0.000;0.000;2023-08-06T06:58:19;1.85;;;1.20;;
47413;SDS011;33163;0.000;0.000;2023-08-06T07:00:46;1.55;;;0.95;;
47413;SDS011;33163;0.000;0.000;2023-08-06T07:03:14;2.55;;;1.33;;
47413;SDS011;33163;0.000;0.000;2023-08-06T07:05:41;1.52;;;1.10;;
47413;SDS011;33163;0.000;0.000;2023-08-06T07:08:09;2.35;;;1.42;;
47413;SDS011;33163;0.000;0.000;2023-08-06T07:10:36;2.03;;;1.30;;
47413;SDS011;33163;0.000;0.000;2023-08-06T07:13:03;2.90;;;1.45;;
47413;SDS011;33163;0.000;0.000;2023-08-06T07:15:29;3.70;;;1.58;;
47413;SDS011;33163;0.000;0.000;2023-08-06T07:17:56;6.85;;;2.03;;
47413;SDS011;33163;0.000;0.000;2023-08-06T07:20:24;3.47;;;1.40;;
47413;SDS011;33163;0.000;0.000;2023-08-06T07:22:54;1.98;;;1.42;;
47413;SDS011;33163;0.000;0.000;2023-08-06T07:25:21;2.13;;;1.20;;
47413;SDS011;33163;0.000;0.000;2023-08-06T07:27:47;2.00;;;1.17;;
47413;SDS011;33163;0.000;0.000;2023-08-06T07:30:14;2.60;;;1.13;;
47413;SDS011;33163;0.000;0.000;2023-08-06T07:32:41;2.53;;;1.20;;
47413;SDS011;33163;0.000;0.000;2023-08-06T07:35:08;3.17;;;1.27;;
47413;SDS011;33163;0.000;0.000;2023-08-06T07:37:38;3.05;;;1.50;;
47413;SDS011;33163;0.000;0.000;2023-08-06T07:40:06;2.03;;;1.38;;
47413;SDS011;33163;0.000;0.000;2023-08-06T07:42:33;2.55;;;1.25;;
47413;SDS011;33163;0.000;0.000;2023-08-06T07:45:01;2.08;;;1.70;;
47413;SDS011;33163;0.000;0.000;2023-08-06T07:47:29;2.97;;;1.40;;
47413;SDS011;33163;0.000;0.000;2023-08-06T07:49:56;5.07;;;1.55;;
47413;SDS011;33163;0.000;0.000;2023-08-06T07:52:22;6.28;;;1.80;;
47413;SDS011;33163;0.000;0.000;2023-08-06T07:54:50;2.08;;;1.50;;
47413;SDS011;33163;0.000;0.000;2023-08-06T07:57:17;2.72;;;1.42;;
47413;SDS011;33163;0.000;0.000;2023-08-06T07:59:44;2.22;;;1.13;;
47413;SDS011;33163;0.000;0.000;2023-08-06T08:02:11;3.13;;;1.45;;
47413;SDS011;33163;0.000;0.000;2023-08-06T08:04:38;4.28;;;1.27;;
47413;SDS011;33163;0.000;0.000;2023-08-06T08:07:05;1.90;;;1.70;;
47413;SDS011;33163;0.000;0.000;2023-08-06T08:09:31;2.83;;;1.40;;
47413;SDS011;33163;0.000;0.000;2023-08-06T08:11:59;2.53;;;1.30;;
47413;SDS011;33163;0.000;0.000;2023-08-06T08:14:27;5.28;;;1.50;;
47413;SDS011;33163;0.000;0.000;2023-08-06T08:17:00;1.98;;;1.40;;
47413;SDS011;33163;0.000;0.000;2023-08-06T08:19:27;2.22;;;1.52;;
47413;SDS011;33163;0.000;0.000;2023-08-06T08:21:54;2.92;;;1.60;;
47413;SDS011;33163;0.000;0.000;2023-08-06T08:24:20;2.80;;;1.80;;
47413;SDS011;33163;0.000;0.000;2023-08-06T08:26:48;4.18;;;1.40;;
47413;SDS011;33163;0.000;0.000;2023-08-06T08:29:17;2.53;;;1.67;;
47413;SDS011;33163;0.000;0.000;2023-08-06T08:31:43;2.58;;;1.30;;
47413;SDS011;33163;0.000;0.000;2023-08-06T08:34:10;3.63;;;1.75;;
47413;SDS011;33163;0.000;0.000;2023-08-06T08:36:37;2.33;;;1.30;;
47413;SDS011;33163;0.000;0.000;2023-08-06T08:39:04;2.88;;;1.80;;
47413;SDS011;33163;0.000;0.000;2023-08-06T08:41:31;1.77;;;1.10;;
47413;SDS011;33163;0.000;0.000;2023-08-06T08:43:59;3.05;;;1.40;;
47413;SDS011;33163;0.000;0.000;2023-08-06T08:46:28;2.00;;;1.15;;
47413;SDS011;33163;0.000;0.000;2023-08-06T08:48:56;4.05;;;1.65;;
47413;SDS011;33163;0.000;0.000;2023-08-06T08:51:25;3.17;;;1.30;;
47413;SDS011;33163;0.000;0.000;2023-08-06T08:53:53;3.10;;;1.40;;
47413;SDS011;33163;0.000;0.000;2023-08-06T08:56:22;4.78;;;1.70;;
47413;SDS011;33163;0.000;0.000;2023-08-06T08:58:49;3.80;;;1.20;;
47413;SDS011;33163;0.000;0.000;2023-08-06T09:01:18;2.28;;;1.52;;
47413;SDS011;33163;0.000;0.000;2023-08-06T09:03:48;1.65;;;1.20;;
47413;SDS011;33163;0.000;0.000;2023-08-06T09:06:16;2.55;;;1.40;;
47413;SDS011;33163;0.000;0.000;2023-08-06T09:08:47;2.30;;;1.40;;
47413;SDS011;33163;0.000;0.000;2023-08-06T09:11:17;2.90;;;1.38;;
47413;SDS011;33163;0.000;0.000;2023-08-06T09:13:46;1.92;;;1.50;;
47413;SDS011;33163;0.000;0.000;2023-08-06T09:16:13;2.58;;;1.55;;
47413;SDS011;33163;0.000;0.000;2023-08-06T09:18:40;2.53;;;1.20;;
47413;SDS011;33163;0.000;0.000;2023-08-06T09:21:09;3.40;;;1.60;;
47413;SDS011;33163;0.000;0.000;2023-08-06T09:23:40;2.78;;;1.30;;
47413;SDS011;33163;0.000;0.000;2023-08-06T09:26:07;2.42;;;1.30;;
47413;SDS011;33163;0.000;0.000;2023-08-06T09:28:37;4.43;;;1.60;;
47413;SDS011;33163;0.000;0.000;2023-08-06T09:31:07;2.85;;;1.38;;
47413;SDS011;33163;0.000;0.000;2023-08-06T09:33:35;3.13;;;1.65;;
47413;SDS011;33163;0.000;0.000;2023-08-06T09:36:07;1.77;;;1.63;;
47413;SDS011;33163;0.000;0.000;2023-08-06T09:38:38;1.60;;;1.10;;
47413;SDS011;33163;0.000;0.000;2023-08-06T09:41:06;2.65;;;1.65;;
47413;SDS011;33163;0.000;0.000;2023-08-06T09:43:39;2.40;;;1.30;;
47413;SDS011;33163;0.000;0.000;2023-08-06T09:46:10;2.75;;;1.50;;
47413;SDS011;33163;0.000;0.000;2023-08-06T09:48:39;4.28;;;1.25;;
47413;SDS011;33163;0.000;0.000;2023-08-06T09:51:06;3.35;;;1.33;;
47413;SDS011;33163;0.000;0.000;2023-08-06T09:53:35;2.75;;;1.83;;
47413;SDS011;33163;0.000;0.000;2023-08-06T09:56:06;2.35;;;1.10;;
47413;SDS011;33163;0.000;0.000;2023-08-06T09:58:34;3.58;;;1.40;;
47413;SDS011;33163;0.000;0.000;2023-08-06T10:01:02;1.92;;;1.20;;
47413;SDS011;33163;0.000;0.000;2023-08-06T10:03:30;2.60;;;1.52;;
47413;SDS011;33163;0.000;0.000;2023-08-06T10:06:00;2.75;;;1.48;;
47413;SDS011;33163;0.000;0.000;2023-08-06T10:08:31;3.67;;;1.58;;
47413;SDS011;33163;0.000;0.000;2023-08-06T10:10:59;2.67;;;1.40;;
47413;SDS011;33163;0.000;0.000;2023-08-06T10:13:29;6.65;;;1.42;;
47413;SDS011;33163;0.000;0.000;2023-08-06T10:15:56;5.53;;;1.38;;
47413;SDS011;33163;0.000;0.000;2023-08-06T10:18:23;2.08;;;1.40;;
47413;SDS011;33163;0.000;0.000;2023-08-06T10:20:50;1.65;;;1.00;;
47413;SDS011;33163;0.000;0.000;2023-08-06T10:23:17;2.05;;;1.60;;
47413;SDS011;33163;0.000;0.000;2023-08-06T10:25:46;1.45;;;1.10;;
47413;SDS011;33163;0.000;0.000;2023-08-06T10:28:22;2.70;;;1.20;;
47413;SDS011;33163;0.000;0.000;2023-08-06T10:30:59;1.85;;;1.30;;
47413;SDS011;33163;0.000;0.000;2023-08-06T10:33:26;1.65;;;1.20;;
47413;SDS011;33163;0.000;0.000;2023-08-06T10:36:08;1.67;;;1.58;;
47413;SDS011;33163;0.000;0.000;2023-08-06T10:38:36;4.18;;;1.48;;
47413;SDS011;33163;0.000;0.000;2023-08-06T10:41:14;6.90;;;1.38;;
47413;SDS011;33163;0.000;0.000;2023-08-06T10:43:44;3.72;;;1.20;;
47413;SDS011;33163;0.000;0.000;2023-08-06T10:46:21;8.60;;;3.67;;
47413;SDS011;33163;0.000;0.000;2023-08-06T10:48:49;10.02;;;6.70;;
47413;SDS011;33163;0.000;0.000;2023-08-06T10:51:16;15.07;;;7.95;;
47413;SDS011;33163;0.000;0.000;2023-08-06T10:53:44;19.90;;;9.32;;
47413;SDS011;33163;0.000;0.000;2023-08-06T10:56:12;35.63;;;20.70;;
47413;SDS011;33163;0.000;0.000;2023-08-06T10:58:39;53.83;;;31.63;;
47413;SDS011;33163;0.000;0.000;2023-08-06T11:01:08;71.55;;;38.00;;
47413;SDS011;33163;0.000;0.000;2023-08-06T11:03:35;80.57;;;43.35;;
47413;SDS011;33163;0.000;0.000;2023-08-06T11:06:02;79.93;;;43.10;;
47413;SDS011;33163;0.000;0.000;2023-08-06T11:08:33;78.80;;;42.05;;
47413;SDS011;33163;0.000;0.000;2023-08-06T11:11:07;77.70;;;42.08;;
47413;SDS011;33163;0.000;0.000;2023-08-06T11:13:36;69.30;;;39.08;;
47413;SDS011;33163;0.000;0.000;2023-08-06T11:16:03;74.88;;;38.08;;
47413;SDS011;33163;0.000;0.000;2023-08-06T11:18:32;70.00;;;37.17;;
47413;SDS011;33163;0.000;0.000;2023-08-06T11:20:59;69.30;;;34.22;;
47413;SDS011;33163;0.000;0.000;2023-08-06T11:23:26;69.93;;;36.38;;
47413;SDS011;33163;0.000;0.000;2023-08-06T11:25:53;71.55;;;34.97;;
47413;SDS011;33163;0.000;0.000;2023-08-06T11:28:20;60.90;;;34.03;;
47413;SDS011;33163;0.000;0.000;2023-08-06T11:30:48;67.50;;;31.98;;
47413;SDS011;33163;0.000;0.000;2023-08-06T11:33:19;53.50;;;30.17;;
47413;SDS011;33163;0.000;0.000;2023-08-06T11:35:48;60.60;;;30.35;;
47413;SDS011;33163;0.000;0.000;2023-08-06T11:38:15;53.25;;;30.15;;
47413;SDS011;33163;0.000;0.000;2023-08-06T11:40:43;47.60;;;28.40;;
47413;SDS011;33163;0.000;0.000;2023-08-06T11:43:10;45.28;;;25.48;;
47413;SDS011;33163;0.000;0.000;2023-08-06T11:45:37;48.38;;;25.60;;
47413;SDS011;33163;0.000;0.000;2023-08-06T11:48:04;43.70;;;25.38;;
47413;SDS011;33163;0.000;0.000;2023-08-06T11:50:35;43.70;;;23.92;;
47413;SDS011;33163;0.000;0.000;2023-08-06T11:53:04;43.97;;;22.83;;
47413;SDS011;33163;0.000;0.000;2023-08-06T11:55:31;47.65;;;23.13;;
47413;SDS011;33163;0.000;0.000;2023-08-06T11:57:58;45.03;;;22.17;;
47413;SDS011;33163;0.000;0.000;2023-08-06T12:00:28;38.30;;;21.02;;
47413;SDS011;33163;0.000;0.000;2023-08-06T12:02:55;36.95;;;21.48;;
47413;SDS011;33163;0.000;0.000;2023-08-06T12:05:23;38.15;;;21.17;;
47413;SDS011;33163;0.000;0.000;2023-08-06T12:07:55;28.17;;;16.20;;
47413;SDS011;33163;0.000;0.000;2023-08-06T12:10:25;34.20;;;18.98;;
47413;SDS011;33163;0.000;0.000;2023-08-06T12:12:53;35.28;;;17.60;;
47413;SDS011;33163;0.000;0.000;2023-08-06T12:15:20;30.27;;;17.23;;
47413;SDS011;33163;0.000;0.000;2023-08-06T12:17:47;28.15;;;15.77;;
47413;SDS011;33163;0.000;0.000;2023-08-06T12:20:14;31.08;;;16.98;;
47413;SDS011;33163;0.000;0.000;2023-08-06T12:22:41;29.75;;;15.90;;
47413;SDS011;33163;0.000;0.000;2023-08-06T12:25:09;30.83;;;16.15;;
47413;SDS011;33163;0.000;0.000;2023-08-06T12:27:39;28.92;;;15.43;;
47413;SDS011;33163;0.000;0.000;2023-08-06T12:30:07;26.08;;;15.15;;
47413;SDS011;33163;0.000;0.000;2023-08-06T12:32:34;26.98;;;14.55;;
47413;SDS011;33163;0.000;0.000;2023-08-06T12:35:01;22.65;;;12.10;;
47413;SDS011;33163;0.000;0.000;2023-08-06T12:37:28;24.73;;;13.60;;
47413;SDS011;33163;0.000;0.000;2023-08-06T12:39:55;19.80;;;11.13;;
47413;SDS011;33163;0.000;0.000;2023-08-06T12:42:21;24.20;;;11.98;;
47413;SDS011;33163;0.000;0.000;2023-08-06T12:44:50;22.15;;;11.75;;
47413;SDS011;33163;0.000;0.000;2023-08-06T12:47:17;19.25;;;11.88;;
47413;SDS011;33163;0.000;0.000;2023-08-06T12:49:44;21.02;;;11.07;;
47413;SDS011;33163;0.000;0.000;2023-08-06T12:52:11;19.50;;;10.60;;
47413;SDS011;33163;0.000;0.000;2023-08-06T12:54:40;19.42;;;10.15;;
47413;SDS011;33163;0.000;0.000;2023-08-06T12:57:07;16.90;;;9.32;;
47413;SDS011;33163;0.000;0.000;2023-08-06T12:59:33;19.20;;;9.93;;
47413;SDS011;33163;0.000;0.000;2023-08-06T13:02:03;18.20;;;9.65;;
47413;SDS011;33163;0.000;0.000;2023-08-06T13:04:30;19.35;;;9.43;;
47413;SDS011;33163;0.000;0.000;2023-08-06T13:06:59;15.50;;;8.73;;
47413;SDS011;33163;0.000;0.000;2023-08-06T13:09:25;19.48;;;9.80;;
47413;SDS011;33163;0.000;0.000;2023-08-06T13:11:52;18.13;;;9.65;;
47413;SDS011;33163;0.000;0.000;2023-08-06T13:14:19;14.20;;;8.88;;
47413;SDS011;33163;0.000;0.000;2023-08-06T13:16:46;15.63;;;7.97;;
47413;SDS011;33163;0.000;0.000;2023-08-06T13:19:14;13.32;;;7.60;;
47413;SDS011;33163;0.000;0.000;2023-08-06T13:22:00;15.38;;;8.50;;
47413;SDS011;33163;0.000;0.000;2023-08-06T13:24:30;14.80;;;7.75;;
47413;SDS011;33163;0.000;0.000;2023-08-06T13:26:57;12.25;;;7.13;;
47413;SDS011;33163;0.000;0.000;2023-08-06T13:29:24;12.88;;;6.97;;
47413;SDS011;33163;0.000;0.000;2023-08-06T13:31:51;12.27;;;6.90;;
47413;SDS011;33163;0.000;0.000;2023-08-06T13:34:19;11.23;;;6.60;;
47413;SDS011;33163;0.000;0.000;2023-08-06T13:36:47;11.45;;;6.68;;
47413;SDS011;33163;0.000;0.000;2023-08-06T13:39:15;16.90;;;7.25;;
47413;SDS011;33163;0.000;0.000;2023-08-06T13:41:42;12.27;;;5.85;;
47413;SDS011;33163;0.000;0.000;2023-08-06T13:44:09;11.18;;;5.38;;
47413;SDS011;33163;0.000;0.000;2023-08-06T13:46:39;15.32;;;6.75;;
47413;SDS011;33163;0.000;0.000;2023-08-06T13:49:06;10.48;;;5.25;;
47413;SDS011;33163;0.000;0.000;2023-08-06T13:51:34;12.98;;;5.80;;
47413;SDS011;33163;0.000;0.000;2023-08-06T13:54:01;8.60;;;4.57;;
47413;SDS011;33163;0.000;0.000;2023-08-06T13:56:27;13.05;;;5.82;;
47413;SDS011;33163;0.000;0.000;2023-08-06T13:58:54;9.70;;;4.85;;
47413;SDS011;33163;0.000;0.000;2023-08-06T14:01:21;12.05;;;5.05;;
47413;SDS011;33163;0.000;0.000;2023-08-06T14:03:48;10.77;;;4.82;;
47413;SDS011;33163;0.000;0.000;2023-08-06T14:06:15;9.32;;;4.78;;
47413;SDS011;33163;0.000;0.000;2023-08-06T14:08:43;9.02;;;4.63;;
47413;SDS011;33163;0.000;0.000;2023-08-06T14:11:09;8.70;;;4.05;;
47413;SDS011;33163;0.000;0.000;2023-08-06T14:13:36;8.27;;;4.40;;
47413;SDS011;33163;0.000;0.000;2023-08-06T14:16:03;7.07;;;3.45;;
47413;SDS011;33163;0.000;0.000;2023-08-06T14:18:30;8.70;;;4.20;;
47413;SDS011;33163;0.000;0.000;2023-08-06T14:20:56;12.77;;;3.92;;
47413;SDS011;33163;0.000;0.000;2023-08-06T14:23:23;7.68;;;3.63;;
47413;SDS011;33163;0.000;0.000;2023-08-06T14:25:51;8.10;;;3.47;;
47413;SDS011;33163;0.000;0.000;2023-08-06T14:28:18;7.82;;;3.42;;
47413;SDS011;33163;0.000;0.000;2023-08-06T14:30:45;11.32;;;4.00;;
47413;SDS011;33163;0.000;0.000;2023-08-06T14:33:11;8.60;;;3.60;;
47413;SDS011;33163;0.000;0.000;2023-08-06T14:35:38;8.63;;;3.60;;
47413;SDS011;33163;0.000;0.000;2023-08-06T14:38:05;8.05;;;4.13;;
47413;SDS011;33163;0.000;0.000;2023-08-06T14:40:32;6.80;;;3.30;;
47413;SDS011;33163;0.000;0.000;2023-08-06T14:43:04;7.50;;;3.35;;
47413;SDS011;33163;0.000;0.000;2023-08-06T14:45:31;7.65;;;3.00;;
47413;SDS011;33163;0.000;0.000;2023-08-06T14:47:58;9.30;;;3.30;;
47413;SDS011;33163;0.000;0.000;2023-08-06T14:50:25;6.05;;;2.83;;
47413;SDS011;33163;0.000;0.000;2023-08-06T14:52:51;5.13;;;2.67;;
47413;SDS011;33163;0.000;0.000;2023-08-06T14:55:22;5.55;;;3.00;;
47413;SDS011;33163;0.000;0.000;2023-08-06T14:57:51;9.93;;;3.58;;
47413;SDS011;33163;0.000;0.000;2023-08-06T15:00:19;5.10;;;2.47;;